createdAt,value
2024-03-02T00:00:23.526Z,17.80
2024-03-02T00:02:51.163Z,17.50
2024-03-02T00:05:23.366Z,17.17
2024-03-02T00:07:58.834Z,17.35
2024-03-02T00:10:41.158Z,16.33
2024-03-02T00:13:09.791Z,16.10
2024-03-02T00:15:49.386Z,17.02
2024-03-02T00:18:40.914Z,15.45
2024-03-02T00:21:11.441Z,16.65
2024-03-02T00:23:39.712Z,16.63
2024-03-02T00:26:07.192Z,16.08
2024-03-02T00:28:38.551Z,15.88
2024-03-02T00:31:14.130Z,16.85
2024-03-02T00:33:49.488Z,16.80
2024-03-02T00:36:28.424Z,17.23
2024-03-02T00:38:56.107Z,16.80
2024-03-02T00:41:25.211Z,16.10
2024-03-02T00:44:09.385Z,17.35
2024-03-02T00:46:44.971Z,17.23
2024-03-02T00:49:24.203Z,14.80
2024-03-02T00:51:53.574Z,15.52
2024-03-02T00:54:27.166Z,14.70
2024-03-02T00:56:56.446Z,14.63
2024-03-02T00:59:24.194Z,14.30
2024-03-02T01:01:51.816Z,14.55
2024-03-02T01:04:18.664Z,14.30
2024-03-02T01:06:45.628Z,14.27
2024-03-02T01:09:13.669Z,13.35
2024-03-02T01:11:40.764Z,12.95
2024-03-02T01:14:07.744Z,15.05
2024-03-02T01:16:34.570Z,14.35
2024-03-02T01:19:01.751Z,14.40
2024-03-02T01:21:28.729Z,14.32
2024-03-02T01:23:55.587Z,14.25
2024-03-02T01:26:22.469Z,14.85
2024-03-02T01:28:49.763Z,14.55
2024-03-02T01:31:16.624Z,13.25
2024-03-02T01:33:43.690Z,14.35
2024-03-02T01:36:10.615Z,14.10
2024-03-02T01:38:37.462Z,13.82
2024-03-02T01:41:04.435Z,13.05
2024-03-02T01:43:31.242Z,13.63
2024-03-02T01:45:58.540Z,14.02
2024-03-02T01:48:25.530Z,14.07
2024-03-02T01:50:52.533Z,13.13
2024-03-02T01:53:20.005Z,13.85
2024-03-02T01:55:46.885Z,15.05
2024-03-02T01:58:13.805Z,14.35
2024-03-02T02:00:41.011Z,15.35
2024-03-02T02:03:07.966Z,13.75
2024-03-02T02:05:36.138Z,13.55
2024-03-02T02:08:03.190Z,15.02
2024-03-02T02:10:30.081Z,14.15
2024-03-02T02:12:57.068Z,14.65
2024-03-02T02:15:27.417Z,14.18
2024-03-02T02:17:58.650Z,13.50
2024-03-02T02:20:26.619Z,14.73
2024-03-02T02:23:01.322Z,13.60
2024-03-02T02:25:29.575Z,13.15
2024-03-02T02:27:58.050Z,12.60
2024-03-02T02:30:28.408Z,14.13
2024-03-02T02:32:55.609Z,13.43
2024-03-02T02:35:23.084Z,13.40
2024-03-02T02:37:51.717Z,14.10
2024-03-02T02:40:20.097Z,12.63
2024-03-02T02:42:47.823Z,13.45
2024-03-02T02:45:16.110Z,13.98
2024-03-02T02:47:44.600Z,13.43
2024-03-02T02:50:13.488Z,13.05
2024-03-02T02:52:42.332Z,12.60
2024-03-02T02:55:14.896Z,13.52
2024-03-02T02:57:44.539Z,13.63
2024-03-02T03:00:17.950Z,12.85
2024-03-02T03:02:48.918Z,13.18
2024-03-02T03:05:16.644Z,14.50
2024-03-02T03:07:45.294Z,14.38
2024-03-02T03:10:12.369Z,14.43
2024-03-02T03:12:39.397Z,14.10
2024-03-02T03:15:08.035Z,14.55
2024-03-02T03:17:36.050Z,13.30
2024-03-02T03:20:05.106Z,13.50
2024-03-02T03:22:32.968Z,12.95
2024-03-02T03:25:00.856Z,14.18
2024-03-02T03:27:28.052Z,14.52
2024-03-02T03:29:55.502Z,13.32
2024-03-02T03:32:23.106Z,14.43
2024-03-02T03:34:50.183Z,14.30
2024-03-02T03:37:17.080Z,14.98
2024-03-02T03:39:44.025Z,14.15
2024-03-02T03:42:10.890Z,15.90
2024-03-02T03:44:37.824Z,14.27
2024-03-02T03:47:04.742Z,13.55
2024-03-02T03:49:31.556Z,14.10
2024-03-02T03:51:58.571Z,15.40
2024-03-02T03:54:25.474Z,16.92
2024-03-02T03:56:52.329Z,15.98
2024-03-02T03:59:19.177Z,15.38
2024-03-02T04:01:46.082Z,16.67
2024-03-02T04:04:12.906Z,17.75
2024-03-02T04:06:39.885Z,13.73
2024-03-02T04:09:06.704Z,14.32
2024-03-02T04:11:33.634Z,14.57
2024-03-02T04:14:00.569Z,13.80
2024-03-02T04:16:27.457Z,14.05
2024-03-02T04:18:54.369Z,13.95
2024-03-02T04:21:21.396Z,14.05
2024-03-02T04:23:48.632Z,15.10
2024-03-02T04:26:20.740Z,15.00
2024-03-02T04:28:47.736Z,15.37
2024-03-02T04:31:16.449Z,15.48
2024-03-02T04:33:43.389Z,13.52
2024-03-02T04:36:11.133Z,14.18
2024-03-02T04:38:39.591Z,15.02
2024-03-02T04:41:07.260Z,14.73
2024-03-02T04:43:34.783Z,13.93
2024-03-02T04:46:02.262Z,14.30
2024-03-02T04:48:29.243Z,13.88
2024-03-02T04:50:56.108Z,14.27
2024-03-02T04:53:22.919Z,14.55
2024-03-02T04:56:08.705Z,14.77
2024-03-02T04:58:35.529Z,14.05
2024-03-02T05:01:02.410Z,13.30
2024-03-02T05:03:29.264Z,14.57
2024-03-02T05:05:57.131Z,16.38
2024-03-02T05:08:24.035Z,14.75
2024-03-02T05:10:50.859Z,14.60
2024-03-02T05:13:18.720Z,15.18
2024-03-02T05:15:45.902Z,15.25
2024-03-02T05:18:12.786Z,14.20
2024-03-02T05:20:39.650Z,14.15
2024-03-02T05:23:06.449Z,14.07
2024-03-02T05:25:33.900Z,14.90
2024-03-02T05:28:00.828Z,13.93
2024-03-02T05:30:27.886Z,14.50
2024-03-02T05:32:54.787Z,14.65
2024-03-02T05:35:21.696Z,13.63
2024-03-02T05:37:48.593Z,13.40
2024-03-02T05:40:15.472Z,13.77
2024-03-02T05:42:42.697Z,14.07
2024-03-02T05:45:09.791Z,14.70
2024-03-02T05:47:36.630Z,15.45
2024-03-02T05:50:04.948Z,14.60
2024-03-02T05:52:31.914Z,13.63
2024-03-02T05:54:58.796Z,16.83
2024-03-02T05:57:44.355Z,13.75
2024-03-02T06:00:12.130Z,14.50
2024-03-02T06:02:42.355Z,14.52
2024-03-02T06:05:10.082Z,14.57
2024-03-02T06:07:37.085Z,15.90
2024-03-02T06:10:04.271Z,16.20
2024-03-02T06:12:33.538Z,15.30
2024-03-02T06:15:00.514Z,15.30
2024-03-02T06:17:27.487Z,20.42
2024-03-02T06:19:54.381Z,17.35
2024-03-02T06:22:22.489Z,16.67
2024-03-02T06:24:49.589Z,15.98
2024-03-02T06:27:16.588Z,16.98
2024-03-02T06:29:43.624Z,15.82
2024-03-02T06:32:10.563Z,15.30
2024-03-02T06:34:37.518Z,18.13
2024-03-02T06:37:04.481Z,17.73
2024-03-02T06:39:32.440Z,17.00
2024-03-02T06:41:59.297Z,16.38
2024-03-02T06:44:26.082Z,17.00
2024-03-02T06:46:53.021Z,15.88
2024-03-02T06:49:19.824Z,15.70
2024-03-02T06:51:46.675Z,18.38
2024-03-02T06:54:13.606Z,16.67
2024-03-02T06:56:40.446Z,18.45
2024-03-02T06:59:07.291Z,18.05
2024-03-02T07:01:34.189Z,18.65
2024-03-02T07:04:01.117Z,18.48
2024-03-02T07:06:28.027Z,18.35
2024-03-02T07:08:54.840Z,21.25
2024-03-02T07:11:21.789Z,19.77
2024-03-02T07:13:48.610Z,18.75
2024-03-02T07:16:33.840Z,19.63
2024-03-02T07:19:02.456Z,18.35
2024-03-02T07:21:29.642Z,18.02
2024-03-02T07:23:56.486Z,16.90
2024-03-02T07:28:53.917Z,20.25
2024-03-02T07:31:21.140Z,19.80
2024-03-02T07:33:48.150Z,18.67
2024-03-02T07:36:15.474Z,19.60
2024-03-02T07:38:43.946Z,18.60
2024-03-02T07:41:12.330Z,21.50
2024-03-02T07:43:39.498Z,22.38
2024-03-02T07:46:07.071Z,23.25
2024-03-02T07:48:34.049Z,21.50
2024-03-02T07:51:01.387Z,19.42
2024-03-02T07:53:28.230Z,19.52
2024-03-02T07:55:55.116Z,21.75
2024-03-02T07:58:22.503Z,23.23
2024-03-02T08:00:51.129Z,21.30
2024-03-02T08:03:19.340Z,23.80
2024-03-02T08:05:47.181Z,21.33
2024-03-02T08:08:13.999Z,19.98
2024-03-02T08:10:40.817Z,20.98
2024-03-02T08:13:07.791Z,16.92
2024-03-02T08:15:34.659Z,18.55
2024-03-02T08:18:01.661Z,18.15
2024-03-02T08:20:28.675Z,18.92
2024-03-02T08:22:56.227Z,18.17
2024-03-02T08:25:23.706Z,19.08
2024-03-02T08:27:50.679Z,16.70
2024-03-02T08:30:19.122Z,17.38
2024-03-02T08:32:48.176Z,15.77
2024-03-02T08:35:15.186Z,17.95
2024-03-02T08:37:44.835Z,20.27
2024-03-02T08:40:15.388Z,15.20
2024-03-02T08:42:43.622Z,17.48
2024-03-02T08:45:10.601Z,17.48
2024-03-02T08:47:37.653Z,17.35
2024-03-02T08:50:06.171Z,33.42
2024-03-02T08:52:33.066Z,21.75
2024-03-02T08:55:00.078Z,19.33
2024-03-02T08:57:27.100Z,20.02
2024-03-02T08:59:54.012Z,17.55
2024-03-02T09:02:21.131Z,16.48
2024-03-02T09:04:48.092Z,16.58
2024-03-02T09:07:15.037Z,14.82
2024-03-02T09:09:42.056Z,17.70
2024-03-02T09:12:09.327Z,18.05
2024-03-02T09:14:38.032Z,16.15
2024-03-02T09:17:05.334Z,19.23
2024-03-02T09:19:32.296Z,16.65
2024-03-02T09:21:59.978Z,17.15
2024-03-02T09:24:27.027Z,15.65
2024-03-02T09:26:53.917Z,14.73
2024-03-02T09:29:21.856Z,15.13
2024-03-02T09:31:48.798Z,16.50
2024-03-02T09:34:16.888Z,15.88
2024-03-02T09:36:44.593Z,17.70
2024-03-02T09:39:11.713Z,18.15
2024-03-02T09:41:39.650Z,15.80
2024-03-02T09:44:07.419Z,15.68
2024-03-02T09:46:34.461Z,16.88
2024-03-02T09:49:01.445Z,16.45
2024-03-02T09:51:28.305Z,16.08
2024-03-02T09:53:58.370Z,15.18
2024-03-02T09:56:30.403Z,14.15
2024-03-02T09:58:57.233Z,14.13
2024-03-02T10:01:24.173Z,14.68
2024-03-02T10:03:52.300Z,13.95
2024-03-02T10:06:24.439Z,14.48
2024-03-02T10:08:51.834Z,13.77
2024-03-02T10:11:38.072Z,17.55
2024-03-02T10:14:13.873Z,14.77
2024-03-02T10:16:43.416Z,14.15
2024-03-02T10:19:25.225Z,14.15
2024-03-02T10:21:54.734Z,16.13
2024-03-02T10:24:23.716Z,16.05
2024-03-02T10:26:51.183Z,14.90
2024-03-02T10:29:18.671Z,14.57
2024-03-02T10:31:47.420Z,14.15
2024-03-02T10:34:14.795Z,14.48
2024-03-02T10:36:44.281Z,14.10
2024-03-02T10:39:11.220Z,14.07
2024-03-02T10:41:39.758Z,12.98
2024-03-02T10:44:10.942Z,14.35
2024-03-02T10:46:39.375Z,14.38
2024-03-02T10:49:08.731Z,14.48
2024-03-02T10:51:37.678Z,14.60
2024-03-02T10:54:06.020Z,14.73
2024-03-02T10:56:41.627Z,14.90
2024-03-02T10:59:36.086Z,14.88
2024-03-02T11:02:06.235Z,14.10
2024-03-02T11:04:35.946Z,14.25
2024-03-02T11:07:10.059Z,14.98
2024-03-02T11:09:48.402Z,13.63
2024-03-02T11:12:30.582Z,14.73
2024-03-02T11:14:57.833Z,13.55
2024-03-02T11:17:26.014Z,15.10
2024-03-02T11:19:53.734Z,14.18
2024-03-02T11:22:23.558Z,14.23
2024-03-02T11:24:52.421Z,12.95
2024-03-02T11:27:47.436Z,12.15
2024-03-02T11:30:33.272Z,12.77
2024-03-02T11:33:09.584Z,13.25
2024-03-02T11:35:50.083Z,13.80
2024-03-02T11:38:18.896Z,13.32
2024-03-02T11:40:46.136Z,12.52
2024-03-02T11:43:13.563Z,12.18
2024-03-02T11:45:45.744Z,12.50
2024-03-02T11:48:16.331Z,13.38
2024-03-02T11:50:51.762Z,12.18
2024-03-02T11:53:20.705Z,11.55
2024-03-02T11:55:48.313Z,12.68
2024-03-02T11:58:25.320Z,11.75
2024-03-02T12:00:53.284Z,12.50
2024-03-02T12:03:27.046Z,11.45
2024-03-02T12:05:55.292Z,11.18
2024-03-02T12:08:22.801Z,10.80
2024-03-02T12:11:04.341Z,10.25
2024-03-02T12:13:32.406Z,10.43
2024-03-02T12:16:00.021Z,10.82
2024-03-02T12:18:27.927Z,10.68
2024-03-02T12:20:58.925Z,9.98
2024-03-02T12:23:26.678Z,10.32
2024-03-02T12:25:54.042Z,11.32
2024-03-02T12:28:21.170Z,10.68
2024-03-02T12:30:49.222Z,9.15
2024-03-02T12:33:16.344Z,9.48
2024-03-02T12:35:43.745Z,8.48
2024-03-02T12:38:12.185Z,9.07
2024-03-02T12:40:39.320Z,9.25
2024-03-02T12:43:07.891Z,9.00
2024-03-02T12:45:36.464Z,9.70
2024-03-02T12:48:05.645Z,9.63
2024-03-02T12:50:34.371Z,9.18
2024-03-02T12:53:01.391Z,8.80
2024-03-02T12:55:30.095Z,8.48
2024-03-02T12:57:58.242Z,8.05
2024-03-02T13:00:25.204Z,8.27
2024-03-02T13:02:53.370Z,7.97
2024-03-02T13:05:21.324Z,7.22
2024-03-02T13:07:50.038Z,7.80
2024-03-02T13:10:19.254Z,6.93
2024-03-02T13:12:46.675Z,7.10
2024-03-02T13:15:16.552Z,7.45
2024-03-02T13:17:47.178Z,7.97
2024-03-02T13:20:15.570Z,6.78
2024-03-02T13:22:42.792Z,6.90
2024-03-02T13:25:11.548Z,7.00
2024-03-02T13:27:38.685Z,7.75
2024-03-02T13:30:09.918Z,7.47
2024-03-02T13:32:36.950Z,8.40
2024-03-02T13:35:04.325Z,8.43
2024-03-02T13:37:31.581Z,7.32
2024-03-02T13:39:58.532Z,7.60
2024-03-02T13:42:26.066Z,7.43
2024-03-02T13:44:54.163Z,6.25
2024-03-02T13:47:22.149Z,7.47
2024-03-02T13:49:50.067Z,6.68
2024-03-02T13:52:19.780Z,6.55
2024-03-02T13:54:48.805Z,7.40
2024-03-02T13:57:16.233Z,8.38
2024-03-02T13:59:44.635Z,7.95
2024-03-02T14:02:13.404Z,7.57
2024-03-02T14:04:41.048Z,7.07
2024-03-02T14:07:08.636Z,7.30
2024-03-02T14:09:36.260Z,8.27
2024-03-02T14:12:04.028Z,7.45
2024-03-02T14:14:30.973Z,7.72
2024-03-02T14:17:01.461Z,8.07
2024-03-02T14:19:28.604Z,8.50
2024-03-02T14:21:55.874Z,7.93
2024-03-02T14:24:26.757Z,8.18
2024-03-02T14:26:58.423Z,8.23
2024-03-02T14:29:30.273Z,7.60
2024-03-02T14:31:57.158Z,8.02
2024-03-02T14:34:24.215Z,8.60
2024-03-02T14:36:51.218Z,8.88
2024-03-02T14:39:20.883Z,8.95
2024-03-02T14:41:47.842Z,8.73
2024-03-02T14:44:14.790Z,7.97
2024-03-02T14:46:42.918Z,7.35
2024-03-02T14:49:11.923Z,7.55
2024-03-02T14:51:39.146Z,7.50
2024-03-02T14:54:06.397Z,7.60
2024-03-02T14:56:33.581Z,7.38
2024-03-02T14:59:00.458Z,8.90
2024-03-02T15:01:27.599Z,8.48
2024-03-02T15:03:54.780Z,8.70
2024-03-02T15:06:21.888Z,8.32
2024-03-02T15:08:49.095Z,7.70
2024-03-02T15:11:16.460Z,7.50
2024-03-02T15:13:43.901Z,7.80
2024-03-02T15:16:10.944Z,7.97
2024-03-02T15:18:37.991Z,8.23
2024-03-02T15:21:05.417Z,8.75
2024-03-02T15:23:32.277Z,8.52
2024-03-02T15:25:59.299Z,9.30
2024-03-02T15:28:26.293Z,8.23
2024-03-02T15:30:55.236Z,9.35
2024-03-02T15:33:31.944Z,8.55
2024-03-02T15:36:02.686Z,8.77
2024-03-02T15:38:34.088Z,8.82
2024-03-02T15:41:03.497Z,8.35
2024-03-02T15:43:32.071Z,8.38
2024-03-02T15:45:59.700Z,8.27
2024-03-02T15:48:27.290Z,9.55
2024-03-02T15:50:54.189Z,9.70
2024-03-02T15:53:21.431Z,9.00
2024-03-02T15:55:48.323Z,8.45
2024-03-02T15:58:15.342Z,9.10
2024-03-02T16:00:42.333Z,8.55
2024-03-02T16:03:09.367Z,7.97
2024-03-02T16:05:36.280Z,8.35
2024-03-02T16:08:03.297Z,8.88
2024-03-02T16:10:30.134Z,10.18
2024-03-02T16:13:00.847Z,9.00
2024-03-02T16:15:29.597Z,9.45
2024-03-02T16:17:56.814Z,9.07
2024-03-02T16:20:24.688Z,9.85
2024-03-02T16:22:51.558Z,9.75
2024-03-02T16:25:18.657Z,11.13
2024-03-02T16:27:45.637Z,9.82
2024-03-02T16:30:12.904Z,10.05
2024-03-02T16:32:39.725Z,12.23
2024-03-02T16:35:07.066Z,12.20
2024-03-02T16:37:33.986Z,11.90
2024-03-02T16:40:00.838Z,11.80
2024-03-02T16:42:27.663Z,11.40
2024-03-02T16:44:56.667Z,12.88
2024-03-02T16:47:24.672Z,12.45
2024-03-02T16:49:51.751Z,12.20
2024-03-02T16:52:19.151Z,11.57
2024-03-02T16:54:50.811Z,12.10
2024-03-02T16:57:18.551Z,13.20
2024-03-02T16:59:45.745Z,12.80
2024-03-02T17:02:13.382Z,15.50
2024-03-02T17:04:40.949Z,19.05
2024-03-02T17:07:08.186Z,17.08
2024-03-02T17:09:35.203Z,26.90
2024-03-02T17:12:02.142Z,19.48
2024-03-02T17:14:29.055Z,26.80
2024-03-02T17:16:55.916Z,29.35
2024-03-02T17:19:22.760Z,29.83
2024-03-02T17:21:49.632Z,42.53
2024-03-02T17:24:16.592Z,31.80
2024-03-02T17:26:43.510Z,44.03
2024-03-02T17:29:10.416Z,33.35
2024-03-02T17:31:37.378Z,31.42
2024-03-02T17:34:04.445Z,62.65
2024-03-02T17:36:31.409Z,63.45
2024-03-02T17:38:58.240Z,44.10
2024-03-02T17:41:25.670Z,34.90
2024-03-02T17:43:52.495Z,24.52
2024-03-02T17:46:19.361Z,21.15
2024-03-02T17:48:46.369Z,19.92
2024-03-02T17:51:13.891Z,20.80
2024-03-02T17:53:40.733Z,18.23
2024-03-02T17:56:12.026Z,24.77
2024-03-02T17:58:39.307Z,21.45
2024-03-02T18:01:06.203Z,18.45
2024-03-02T18:03:33.320Z,20.30
2024-03-02T18:06:00.231Z,17.08
2024-03-02T18:08:27.131Z,17.02
2024-03-02T18:10:54.229Z,17.30
2024-03-02T18:13:21.067Z,17.63
2024-03-02T18:15:51.228Z,17.42
2024-03-02T18:18:18.521Z,18.08
2024-03-02T18:20:46.285Z,26.15
2024-03-02T18:23:14.237Z,25.75
2024-03-02T18:25:47.279Z,17.75
2024-03-02T18:30:43.500Z,30.27
2024-03-02T18:33:10.442Z,51.60
2024-03-02T18:35:37.965Z,45.53
2024-03-02T18:38:05.324Z,28.90
2024-03-02T18:40:32.343Z,24.25
2024-03-02T18:43:00.248Z,19.73
2024-03-02T18:45:27.345Z,16.75
2024-03-02T18:47:55.067Z,17.58
2024-03-02T18:50:22.214Z,16.88
2024-03-02T18:52:50.192Z,16.70
2024-03-02T18:55:17.300Z,17.70
2024-03-02T18:57:44.493Z,17.13
2024-03-02T19:00:14.129Z,16.63
2024-03-02T19:02:42.452Z,17.67
2024-03-02T19:05:10.620Z,18.17
2024-03-02T19:07:38.134Z,17.15
2024-03-02T19:10:08.558Z,21.73
2024-03-02T19:12:36.342Z,19.60
2024-03-02T19:15:05.209Z,17.55
2024-03-02T19:17:32.069Z,17.27
2024-03-02T19:19:58.983Z,15.75
2024-03-02T19:22:27.286Z,17.38
2024-03-02T19:24:54.751Z,17.33
2024-03-02T19:27:21.539Z,16.08
2024-03-02T19:29:48.386Z,17.17
2024-03-02T19:32:21.094Z,17.15
2024-03-02T19:34:48.964Z,17.85
2024-03-02T19:37:15.824Z,18.77
2024-03-02T19:39:43.555Z,18.95
2024-03-02T19:42:10.873Z,18.70
2024-03-02T19:44:37.860Z,17.75
2024-03-02T19:47:04.914Z,18.58
2024-03-02T19:49:32.001Z,19.10
2024-03-02T19:51:59.075Z,18.70
2024-03-02T19:54:25.958Z,17.70
2024-03-02T19:56:55.392Z,17.98
2024-03-02T19:59:23.005Z,17.02
2024-03-02T20:01:50.396Z,18.70
2024-03-02T20:04:18.016Z,18.10
2024-03-02T20:06:45.085Z,18.55
2024-03-02T20:09:12.815Z,21.38
2024-03-02T20:11:40.032Z,19.65
2024-03-02T20:14:07.047Z,20.38
2024-03-02T20:16:34.088Z,20.10
2024-03-02T20:19:01.090Z,19.52
2024-03-02T20:21:28.055Z,20.27
2024-03-02T20:23:55.138Z,19.65
2024-03-02T20:26:22.689Z,19.45
2024-03-02T20:28:53.158Z,21.75
2024-03-02T20:31:21.369Z,20.38
2024-03-02T20:33:48.439Z,20.90
2024-03-02T20:36:17.255Z,20.75
2024-03-02T20:38:44.101Z,21.50
2024-03-02T20:41:21.156Z,22.65
2024-03-02T20:43:48.206Z,20.45
2024-03-02T20:46:15.880Z,20.42
2024-03-02T20:48:43.084Z,19.45
2024-03-02T20:51:10.022Z,19.88
2024-03-02T20:53:36.972Z,21.73
2024-03-02T20:56:04.744Z,20.95
2024-03-02T20:58:31.888Z,20.55
2024-03-02T21:00:59.007Z,20.50
2024-03-02T21:03:25.943Z,20.80
2024-03-02T21:05:52.881Z,20.58
2024-03-02T21:08:19.832Z,20.67
2024-03-02T21:10:49.507Z,20.73
2024-03-02T21:13:17.621Z,19.88
2024-03-02T21:15:44.876Z,21.70
2024-03-02T21:18:11.795Z,20.80
2024-03-02T21:20:38.729Z,21.15
2024-03-02T21:23:05.565Z,22.63
2024-03-02T21:25:36.298Z,24.25
2024-03-02T21:28:04.004Z,24.92
2024-03-02T21:30:31.761Z,21.83
2024-03-02T21:32:59.498Z,19.70
2024-03-02T21:35:28.249Z,21.67
2024-03-02T21:37:55.693Z,21.20
2024-03-02T21:40:22.754Z,21.00
2024-03-02T21:42:51.881Z,21.70
2024-03-02T21:45:19.034Z,22.63
2024-03-02T21:47:47.081Z,21.65
2024-03-02T21:50:15.580Z,21.88
2024-03-02T21:52:42.440Z,20.27
2024-03-02T21:55:10.621Z,19.67
2024-03-02T21:57:41.118Z,20.08
2024-03-02T22:00:10.205Z,19.65
2024-03-02T22:02:37.196Z,18.75
2024-03-02T22:05:06.628Z,19.95
2024-03-02T22:07:34.335Z,18.23
2024-03-02T22:10:01.850Z,19.38
2024-03-02T22:12:28.832Z,19.90
2024-03-02T22:14:55.755Z,19.17
2024-03-02T22:17:23.582Z,19.98
2024-03-02T22:19:51.264Z,19.63
2024-03-02T22:22:18.467Z,19.85
2024-03-02T22:24:45.543Z,21.02
2024-03-02T22:27:12.585Z,20.40
2024-03-02T22:29:41.765Z,20.30
2024-03-02T22:32:09.335Z,19.67
2024-03-02T22:34:36.240Z,20.73
2024-03-02T22:37:04.155Z,20.92
2024-03-02T22:39:30.983Z,23.23
2024-03-02T22:41:57.945Z,22.50
2024-03-02T22:44:25.319Z,21.52
2024-03-02T22:46:52.669Z,20.20
2024-03-02T22:49:19.615Z,22.95
2024-03-02T22:51:46.654Z,21.95
2024-03-02T22:54:13.660Z,21.50
2024-03-02T22:56:40.626Z,20.67
2024-03-02T22:59:07.478Z,20.85
2024-03-02T23:04:02.682Z,20.38
2024-03-02T23:06:29.525Z,20.13
2024-03-02T23:08:56.363Z,20.27
2024-03-02T23:11:23.256Z,19.65
2024-03-02T23:13:50.181Z,20.10
2024-03-02T23:16:17.113Z,20.98
2024-03-02T23:18:44.510Z,22.58
2024-03-02T23:21:11.678Z,22.15
2024-03-02T23:23:39.076Z,22.70
2024-03-02T23:26:07.473Z,21.30
2024-03-02T23:28:34.526Z,22.73
2024-03-02T23:31:01.437Z,21.75
2024-03-02T23:33:28.265Z,21.50
2024-03-02T23:35:55.061Z,21.75
2024-03-02T23:38:21.954Z,22.05
2024-03-02T23:40:48.818Z,20.85
2024-03-02T23:43:15.849Z,22.10
2024-03-02T23:45:42.910Z,20.33
2024-03-02T23:48:11.437Z,20.13
2024-03-02T23:50:38.472Z,19.85
2024-03-02T23:53:05.465Z,19.08
2024-03-02T23:55:43.009Z,19.80
2024-03-02T23:58:18.569Z,20.33
